sensor_id;sensor_type;location;lat;lon;timestamp;pressure;altitude;pressure_sealevel;temperature;humidity
3968;BME280;9221;42.646;23.380;2023-11-19T00:01:55;94456.31;;;4.57;76.48
3968;BME280;9221;42.646;23.380;2023-11-19T00:04:21;94460.47;;;4.60;76.77
3968;BME280;9221;42.646;23.380;2023-11-19T00:06:47;94444.44;;;4.53;76.31
3968;BME280;9221;42.646;23.380;2023-11-19T00:09:13;94433.38;;;4.38;76.19
3968;BME280;9221;42.646;23.380;2023-11-19T00:11:38;94452.00;;;4.45;76.38
3968;BME280;9221;42.646;23.380;2023-11-19T00:14:04;94455.56;;;4.44;76.58
3968;BME280;9221;42.646;23.380;2023-11-19T00:16:33;94455.94;;;4.50;76.38
3968;BME280;9221;42.646;23.380;2023-11-19T00:18:59;94470.06;;;4.59;75.72
3968;BME280;9221;42.646;23.380;2023-11-19T00:21:24;94472.31;;;4.52;76.24
3968;BME280;9221;42.646;23.380;2023-11-19T00:23:53;94468.41;;;4.58;75.82
3968;BME280;9221;42.646;23.380;2023-11-19T00:26:19;94435.50;;;4.44;75.35
3968;BME280;9221;42.646;23.380;2023-11-19T00:28:45;94469.13;;;4.60;75.55
3968;BME280;9221;42.646;23.380;2023-11-19T00:31:10;94461.28;;;4.60;75.85
3968;BME280;9221;42.646;23.380;2023-11-19T00:33:36;94465.44;;;4.63;75.43
3968;BME280;9221;42.646;23.380;2023-11-19T00:36:02;94470.06;;;4.59;75.79
3968;BME280;9221;42.646;23.380;2023-11-19T00:38:28;94471.97;;;4.57;75.82
3968;BME280;9221;42.646;23.380;2023-11-19T00:40:53;94468.63;;;4.55;75.36
3968;BME280;9221;42.646;23.380;2023-11-19T00:43:19;94463.88;;;4.49;75.97
3968;BME280;9221;42.646;23.380;2023-11-19T00:45:47;94474.09;;;4.52;75.87
3968;BME280;9221;42.646;23.380;2023-11-19T00:48:16;94481.94;;;4.52;75.68
3968;BME280;9221;42.646;23.380;2023-11-19T00:50:41;94463.63;;;4.40;75.81
3968;BME280;9221;42.646;23.380;2023-11-19T00:53:09;94477.44;;;4.54;75.94
3968;BME280;9221;42.646;23.380;2023-11-19T00:55:34;94459.47;;;4.27;75.97
3968;BME280;9221;42.646;23.380;2023-11-19T00:58:00;94470.03;;;4.36;76.22
3968;BME280;9221;42.646;23.380;2023-11-19T01:00:25;94478.13;;;4.45;76.35
3968;BME280;9221;42.646;23.380;2023-11-19T01:02:52;94480.75;;;4.56;75.86
3968;BME280;9221;42.646;23.380;2023-11-19T01:05:19;94492.13;;;4.55;75.70
3968;BME280;9221;42.646;23.380;2023-11-19T01:07:48;94486.44;;;4.50;76.07
3968;BME280;9221;42.646;23.380;2023-11-19T01:10:14;94492.59;;;4.37;76.25
3968;BME280;9221;42.646;23.380;2023-11-19T01:12:41;94490.94;;;4.48;76.04
3968;BME280;9221;42.646;23.380;2023-11-19T01:15:07;94482.66;;;4.54;75.96
3968;BME280;9221;42.646;23.380;2023-11-19T01:17:33;94482.88;;;4.51;75.91
3968;BME280;9221;42.646;23.380;2023-11-19T01:19:58;94479.69;;;4.47;76.11
3968;BME280;9221;42.646;23.380;2023-11-19T01:22:24;94473.84;;;4.55;75.75
3968;BME280;9221;42.646;23.380;2023-11-19T01:24:49;94475.28;;;4.59;75.92
3968;BME280;9221;42.646;23.380;2023-11-19T01:27:15;94481.00;;;4.64;75.71
3968;BME280;9221;42.646;23.380;2023-11-19T01:29:40;94484.53;;;4.63;75.44
3968;BME280;9221;42.646;23.380;2023-11-19T01:32:08;94487.41;;;4.60;75.47
3968;BME280;9221;42.646;23.380;2023-11-19T01:34:33;94486.69;;;4.58;75.36
3968;BME280;9221;42.646;23.380;2023-11-19T01:36:58;94493.09;;;4.54;75.98
3968;BME280;9221;42.646;23.380;2023-11-19T01:39:24;94484.09;;;4.58;75.35
3968;BME280;9221;42.646;23.380;2023-11-19T01:41:49;94481.00;;;4.53;75.53
3968;BME280;9221;42.646;23.380;2023-11-19T01:44:15;94486.66;;;4.47;75.63
3968;BME280;9221;42.646;23.380;2023-11-19T01:46:42;94481.41;;;4.35;75.47
3968;BME280;9221;42.646;23.380;2023-11-19T01:49:09;94482.03;;;4.39;75.59
3968;BME280;9221;42.646;23.380;2023-11-19T01:51:35;94481.56;;;4.45;75.16
3968;BME280;9221;42.646;23.380;2023-11-19T01:54:01;94477.88;;;4.36;74.96
3968;BME280;9221;42.646;23.380;2023-11-19T01:56:27;94471.41;;;4.18;75.15
3968;BME280;9221;42.646;23.380;2023-11-19T01:58:54;94483.66;;;4.29;75.55
3968;BME280;9221;42.646;23.380;2023-11-19T02:01:21;94433.84;;;3.96;74.79
3968;BME280;9221;42.646;23.380;2023-11-19T02:03:47;94485.38;;;4.17;75.56
3968;BME280;9221;42.646;23.380;2023-11-19T02:06:12;94483.97;;;4.13;75.16
3968;BME280;9221;42.646;23.380;2023-11-19T02:08:39;94471.63;;;4.15;75.18
3968;BME280;9221;42.646;23.380;2023-11-19T02:11:05;94448.84;;;4.05;75.33
3968;BME280;9221;42.646;23.380;2023-11-19T02:13:32;94466.41;;;4.15;74.88
3968;BME280;9221;42.646;23.380;2023-11-19T02:15:58;94460.97;;;4.18;74.87
3968;BME280;9221;42.646;23.380;2023-11-19T02:18:26;94460.16;;;4.17;75.03
3968;BME280;9221;42.646;23.380;2023-11-19T02:20:56;94462.25;;;4.12;74.82
3968;BME280;9221;42.646;23.380;2023-11-19T02:23:22;94455.84;;;4.05;74.81
3968;BME280;9221;42.646;23.380;2023-11-19T02:28:32;94469.59;;;4.07;74.92
3968;BME280;9221;42.646;23.380;2023-11-19T02:30:58;94484.44;;;4.06;74.80
3968;BME280;9221;42.646;23.380;2023-11-19T02:33:24;94486.09;;;4.07;74.67
3968;BME280;9221;42.646;23.380;2023-11-19T02:35:50;94491.09;;;4.11;74.50
3968;BME280;9221;42.646;23.380;2023-11-19T02:38:16;94481.84;;;4.18;74.38
3968;BME280;9221;42.646;23.380;2023-11-19T02:40:42;94444.28;;;3.96;74.04
3968;BME280;9221;42.646;23.380;2023-11-19T02:43:07;94439.81;;;3.98;74.10
3968;BME280;9221;42.646;23.380;2023-11-19T02:45:33;94476.63;;;4.18;74.11
3968;BME280;9221;42.646;23.380;2023-11-19T02:47:59;94466.03;;;4.08;73.98
3968;BME280;9221;42.646;23.380;2023-11-19T02:50:27;94479.34;;;4.16;74.11
3968;BME280;9221;42.646;23.380;2023-11-19T02:52:54;94480.41;;;4.14;74.26
3968;BME280;9221;42.646;23.380;2023-11-19T02:55:21;94495.09;;;4.03;74.78
3968;BME280;9221;42.646;23.380;2023-11-19T02:57:49;94487.53;;;4.12;74.72
3968;BME280;9221;42.646;23.380;2023-11-19T03:00:19;94484.81;;;4.13;74.53
3968;BME280;9221;42.646;23.380;2023-11-19T03:02:49;94474.69;;;4.09;74.54
3968;BME280;9221;42.646;23.380;2023-11-19T03:05:24;94493.81;;;4.09;74.73
3968;BME280;9221;42.646;23.380;2023-11-19T03:07:50;94491.78;;;4.13;74.54
3968;BME280;9221;42.646;23.380;2023-11-19T03:10:15;94487.28;;;4.15;74.14
3968;BME280;9221;42.646;23.380;2023-11-19T03:12:42;94478.38;;;4.06;74.17
3968;BME280;9221;42.646;23.380;2023-11-19T03:15:08;94484.78;;;4.02;74.77
3968;BME280;9221;42.646;23.380;2023-11-19T03:17:40;94503.41;;;4.09;74.53
3968;BME280;9221;42.646;23.380;2023-11-19T03:20:07;94499.63;;;4.13;74.36
3968;BME280;9221;42.646;23.380;2023-11-19T03:22:39;94498.56;;;4.15;74.52
3968;BME280;9221;42.646;23.380;2023-11-19T03:25:07;94499.41;;;4.16;74.16
3968;BME280;9221;42.646;23.380;2023-11-19T03:27:35;94505.69;;;4.13;74.45
3968;BME280;9221;42.646;23.380;2023-11-19T03:30:02;94518.38;;;4.18;74.31
3968;BME280;9221;42.646;23.380;2023-11-19T03:32:27;94503.91;;;4.25;73.92
3968;BME280;9221;42.646;23.380;2023-11-19T03:34:53;94497.00;;;4.13;74.07
3968;BME280;9221;42.646;23.380;2023-11-19T03:37:18;94496.31;;;4.11;74.45
3968;BME280;9221;42.646;23.380;2023-11-19T03:39:44;94483.22;;;3.99;74.71
3968;BME280;9221;42.646;23.380;2023-11-19T03:42:10;94501.28;;;4.14;74.49
3968;BME280;9221;42.646;23.380;2023-11-19T03:44:38;94525.38;;;4.17;74.71
3968;BME280;9221;42.646;23.380;2023-11-19T03:47:04;94514.38;;;4.25;74.11
3968;BME280;9221;42.646;23.380;2023-11-19T03:49:29;94496.91;;;4.14;74.30
3968;BME280;9221;42.646;23.380;2023-11-19T03:51:55;94535.03;;;4.28;73.49
3968;BME280;9221;42.646;23.380;2023-11-19T03:54:20;94534.78;;;4.20;73.89
3968;BME280;9221;42.646;23.380;2023-11-19T03:56:48;94539.72;;;4.12;74.46
3968;BME280;9221;42.646;23.380;2023-11-19T03:59:13;94529.28;;;4.12;74.61
3968;BME280;9221;42.646;23.380;2023-11-19T04:01:40;94553.72;;;4.11;74.80
3968;BME280;9221;42.646;23.380;2023-11-19T04:04:06;94537.16;;;4.23;74.49
3968;BME280;9221;42.646;23.380;2023-11-19T04:06:31;94540.59;;;4.23;74.21
3968;BME280;9221;42.646;23.380;2023-11-19T04:08:57;94544.94;;;4.12;74.47
3968;BME280;9221;42.646;23.380;2023-11-19T04:11:22;94525.41;;;3.93;75.09
3968;BME280;9221;42.646;23.380;2023-11-19T04:13:48;94541.22;;;4.03;75.06
3968;BME280;9221;42.646;23.380;2023-11-19T04:16:13;94536.00;;;4.03;74.92
3968;BME280;9221;42.646;23.380;2023-11-19T04:18:40;94542.34;;;4.12;74.76
3968;BME280;9221;42.646;23.380;2023-11-19T04:21:09;94538.31;;;4.19;74.66
3968;BME280;9221;42.646;23.380;2023-11-19T04:23:34;94532.31;;;4.05;74.95
3968;BME280;9221;42.646;23.380;2023-11-19T04:26:03;94541.94;;;4.05;75.21
3968;BME280;9221;42.646;23.380;2023-11-19T04:28:30;94532.44;;;4.04;75.12
3968;BME280;9221;42.646;23.380;2023-11-19T04:30:56;94533.63;;;4.00;75.34
3968;BME280;9221;42.646;23.380;2023-11-19T04:33:21;94521.34;;;3.89;75.20
3968;BME280;9221;42.646;23.380;2023-11-19T04:35:47;94533.50;;;4.01;75.00
3968;BME280;9221;42.646;23.380;2023-11-19T04:38:12;94552.69;;;4.00;75.08
3968;BME280;9221;42.646;23.380;2023-11-19T04:40:37;94577.13;;;3.62;74.87
3968;BME280;9221;42.646;23.380;2023-11-19T04:43:03;94545.44;;;3.93;75.19
3968;BME280;9221;42.646;23.380;2023-11-19T04:45:28;94544.97;;;3.99;74.98
3968;BME280;9221;42.646;23.380;2023-11-19T04:47:54;94541.84;;;4.06;74.83
3968;BME280;9221;42.646;23.380;2023-11-19T04:50:19;94543.69;;;4.04;74.46
3968;BME280;9221;42.646;23.380;2023-11-19T04:52:45;94556.75;;;4.04;74.48
3968;BME280;9221;42.646;23.380;2023-11-19T04:55:12;94547.47;;;4.00;74.28
3968;BME280;9221;42.646;23.380;2023-11-19T04:57:37;94547.06;;;4.06;74.37
3968;BME280;9221;42.646;23.380;2023-11-19T05:00:04;94543.94;;;4.01;73.94
3968;BME280;9221;42.646;23.380;2023-11-19T05:02:30;94556.03;;;4.02;74.36
3968;BME280;9221;42.646;23.380;2023-11-19T05:04:56;94563.25;;;3.99;74.27
3968;BME280;9221;42.646;23.380;2023-11-19T05:07:22;94566.09;;;3.96;73.99
3968;BME280;9221;42.646;23.380;2023-11-19T05:09:47;94561.69;;;3.96;74.32
3968;BME280;9221;42.646;23.380;2023-11-19T05:12:13;94576.81;;;4.04;74.32
3968;BME280;9221;42.646;23.380;2023-11-19T05:14:38;94569.47;;;4.09;73.84
3968;BME280;9221;42.646;23.380;2023-11-19T05:17:04;94571.94;;;3.99;73.63
3968;BME280;9221;42.646;23.380;2023-11-19T05:19:29;94556.19;;;3.88;74.15
3968;BME280;9221;42.646;23.380;2023-11-19T05:21:55;94572.34;;;3.93;74.12
3968;BME280;9221;42.646;23.380;2023-11-19T05:24:20;94523.41;;;3.72;73.62
3968;BME280;9221;42.646;23.380;2023-11-19T05:26:46;94567.91;;;4.06;73.54
3968;BME280;9221;42.646;23.380;2023-11-19T05:29:12;94551.47;;;3.93;73.81
3968;BME280;9221;42.646;23.380;2023-11-19T05:31:38;94568.59;;;3.97;73.47
3968;BME280;9221;42.646;23.380;2023-11-19T05:34:03;94577.97;;;4.00;74.01
3968;BME280;9221;42.646;23.380;2023-11-19T05:36:29;94575.25;;;4.01;73.63
3968;BME280;9221;42.646;23.380;2023-11-19T05:38:55;94588.00;;;3.93;73.10
3968;BME280;9221;42.646;23.380;2023-11-19T05:41:20;94579.25;;;3.94;73.65
3968;BME280;9221;42.646;23.380;2023-11-19T05:43:45;94591.44;;;3.94;73.59
3968;BME280;9221;42.646;23.380;2023-11-19T05:46:11;94583.03;;;3.90;73.48
3968;BME280;9221;42.646;23.380;2023-11-19T05:48:38;94586.03;;;3.97;73.84
3968;BME280;9221;42.646;23.380;2023-11-19T05:51:04;94593.44;;;3.90;74.09
3968;BME280;9221;42.646;23.380;2023-11-19T05:53:31;94554.69;;;3.72;73.86
3968;BME280;9221;42.646;23.380;2023-11-19T05:55:57;94566.16;;;3.83;74.05
3968;BME280;9221;42.646;23.380;2023-11-19T05:58:26;94571.19;;;3.97;73.79
3968;BME280;9221;42.646;23.380;2023-11-19T06:00:55;94577.16;;;3.99;73.64
3968;BME280;9221;42.646;23.380;2023-11-19T06:03:20;94574.84;;;3.95;74.05
3968;BME280;9221;42.646;23.380;2023-11-19T06:05:49;94591.53;;;4.05;73.93
3968;BME280;9221;42.646;23.380;2023-11-19T06:08:16;94605.50;;;4.04;74.09
3968;BME280;9221;42.646;23.380;2023-11-19T06:10:42;94611.34;;;4.07;74.00
3968;BME280;9221;42.646;23.380;2023-11-19T06:13:08;94582.78;;;3.93;73.99
3968;BME280;9221;42.646;23.380;2023-11-19T06:15:35;94604.88;;;4.00;73.93
3968;BME280;9221;42.646;23.380;2023-11-19T06:18:01;94586.84;;;3.97;74.41
3968;BME280;9221;42.646;23.380;2023-11-19T06:20:29;94596.06;;;3.90;74.19
3968;BME280;9221;42.646;23.380;2023-11-19T06:22:55;94595.31;;;3.88;74.73
3968;BME280;9221;42.646;23.380;2023-11-19T06:25:22;94592.22;;;3.83;74.86
3968;BME280;9221;42.646;23.380;2023-11-19T06:27:49;94544.81;;;3.65;74.32
3968;BME280;9221;42.646;23.380;2023-11-19T06:30:14;94587.19;;;3.93;74.61
3968;BME280;9221;42.646;23.380;2023-11-19T06:32:40;94597.22;;;3.86;74.34
3968;BME280;9221;42.646;23.380;2023-11-19T06:35:05;94605.97;;;3.85;74.77
3968;BME280;9221;42.646;23.380;2023-11-19T06:37:31;94588.47;;;3.87;75.07
3968;BME280;9221;42.646;23.380;2023-11-19T06:39:57;94598.91;;;3.87;74.63
3968;BME280;9221;42.646;23.380;2023-11-19T06:42:22;94608.06;;;3.93;74.66
3968;BME280;9221;42.646;23.380;2023-11-19T06:44:47;94545.44;;;3.68;74.05
3968;BME280;9221;42.646;23.380;2023-11-19T06:47:13;94549.72;;;3.69;74.46
3968;BME280;9221;42.646;23.380;2023-11-19T06:49:38;94602.16;;;3.78;74.38
3968;BME280;9221;42.646;23.380;2023-11-19T06:52:04;94598.09;;;3.73;74.85
3968;BME280;9221;42.646;23.380;2023-11-19T06:54:30;94611.44;;;3.82;74.48
3968;BME280;9221;42.646;23.380;2023-11-19T06:56:56;94554.13;;;3.56;74.23
3968;BME280;9221;42.646;23.380;2023-11-19T06:59:23;94618.72;;;3.77;74.23
3968;BME280;9221;42.646;23.380;2023-11-19T07:01:48;94606.44;;;3.79;73.96
3968;BME280;9221;42.646;23.380;2023-11-19T07:04:14;94615.16;;;3.90;73.47
3968;BME280;9221;42.646;23.380;2023-11-19T07:06:39;94626.44;;;3.91;73.64
3968;BME280;9221;42.646;23.380;2023-11-19T07:09:08;94612.66;;;3.89;73.53
3968;BME280;9221;42.646;23.380;2023-11-19T07:11:40;94616.19;;;3.88;73.46
3968;BME280;9221;42.646;23.380;2023-11-19T07:14:09;94620.19;;;3.81;73.47
3968;BME280;9221;42.646;23.380;2023-11-19T07:16:35;94626.22;;;3.81;73.78
3968;BME280;9221;42.646;23.380;2023-11-19T07:19:03;94629.69;;;3.82;73.41
3968;BME280;9221;42.646;23.380;2023-11-19T07:21:29;94641.78;;;3.83;73.55
3968;BME280;9221;42.646;23.380;2023-11-19T07:23:57;94643.72;;;3.92;73.16
3968;BME280;9221;42.646;23.380;2023-11-19T07:26:23;94649.97;;;4.02;73.00
3968;BME280;9221;42.646;23.380;2023-11-19T07:28:51;94649.88;;;4.04;73.05
3968;BME280;9221;42.646;23.380;2023-11-19T07:31:17;94616.19;;;3.88;72.08
3968;BME280;9221;42.646;23.380;2023-11-19T07:33:45;94652.88;;;4.11;72.02
3968;BME280;9221;42.646;23.380;2023-11-19T07:36:11;94670.41;;;4.09;72.16
3968;BME280;9221;42.646;23.380;2023-11-19T07:38:37;94662.00;;;3.92;72.40
3968;BME280;9221;42.646;23.380;2023-11-19T07:41:04;94675.44;;;3.99;72.30
3968;BME280;9221;42.646;23.380;2023-11-19T07:43:30;94656.41;;;4.10;72.25
3968;BME280;9221;42.646;23.380;2023-11-19T07:45:56;94630.41;;;3.84;71.54
3968;BME280;9221;42.646;23.380;2023-11-19T07:48:24;94686.06;;;4.09;71.35
3968;BME280;9221;42.646;23.380;2023-11-19T07:50:49;94663.16;;;3.88;71.76
3968;BME280;9221;42.646;23.380;2023-11-19T07:53:16;94664.53;;;3.81;72.01
3968;BME280;9221;42.646;23.380;2023-11-19T07:55:41;94671.41;;;3.82;72.15
3968;BME280;9221;42.646;23.380;2023-11-19T07:58:07;94663.72;;;3.67;71.96
3968;BME280;9221;42.646;23.380;2023-11-19T08:00:32;94673.38;;;3.91;72.03
3968;BME280;9221;42.646;23.380;2023-11-19T08:02:58;94681.50;;;3.99;72.06
3968;BME280;9221;42.646;23.380;2023-11-19T08:05:23;94675.19;;;4.15;70.79
3968;BME280;9221;42.646;23.380;2023-11-19T08:07:50;94632.59;;;3.90;70.85
3968;BME280;9221;42.646;23.380;2023-11-19T08:10:16;94691.66;;;4.28;70.83
3968;BME280;9221;42.646;23.380;2023-11-19T08:12:41;94635.53;;;4.10;70.79
3968;BME280;9221;42.646;23.380;2023-11-19T08:15:07;94678.22;;;4.46;70.20
3968;BME280;9221;42.646;23.380;2023-11-19T08:17:33;94661.00;;;4.43;69.45
3968;BME280;9221;42.646;23.380;2023-11-19T08:19:58;94680.34;;;4.40;69.42
3968;BME280;9221;42.646;23.380;2023-11-19T08:22:25;94672.00;;;4.35;69.46
3968;BME280;9221;42.646;23.380;2023-11-19T08:24:50;94687.97;;;4.55;68.86
3968;BME280;9221;42.646;23.380;2023-11-19T08:27:16;94690.41;;;4.58;68.78
3968;BME280;9221;42.646;23.380;2023-11-19T08:29:41;94681.78;;;4.45;69.36
3968;BME280;9221;42.646;23.380;2023-11-19T08:32:07;94699.78;;;4.36;69.45
3968;BME280;9221;42.646;23.380;2023-11-19T08:34:32;94652.88;;;4.11;69.43
3968;BME280;9221;42.646;23.380;2023-11-19T08:36:58;94679.38;;;5.01;68.55
3968;BME280;9221;42.646;23.380;2023-11-19T08:39:24;94697.34;;;5.64;66.48
3968;BME280;9221;42.646;23.380;2023-11-19T08:41:49;94710.53;;;5.63;65.10
3968;BME280;9221;42.646;23.380;2023-11-19T08:44:15;94713.03;;;5.64;65.47
3968;BME280;9221;42.646;23.380;2023-11-19T08:46:49;94711.59;;;5.37;65.29
3968;BME280;9221;42.646;23.380;2023-11-19T08:49:15;94709.91;;;5.36;66.12
3968;BME280;9221;42.646;23.380;2023-11-19T08:51:40;94706.84;;;5.54;65.41
3968;BME280;9221;42.646;23.380;2023-11-19T08:54:06;94707.22;;;5.83;65.35
3968;BME280;9221;42.646;23.380;2023-11-19T08:56:32;94690.72;;;7.04;62.12
3968;BME280;9221;42.646;23.380;2023-11-19T08:58:59;94717.63;;;7.91;58.55
3968;BME280;9221;42.646;23.380;2023-11-19T09:01:25;94707.56;;;8.27;56.78
3968;BME280;9221;42.646;23.380;2023-11-19T09:03:51;94707.66;;;8.56;55.61
3968;BME280;9221;42.646;23.380;2023-11-19T09:06:17;94696.47;;;7.92;56.58
3968;BME280;9221;42.646;23.380;2023-11-19T09:08:42;94691.69;;;7.45;57.10
3968;BME280;9221;42.646;23.380;2023-11-19T09:11:08;94688.78;;;7.06;58.48
3968;BME280;9221;42.646;23.380;2023-11-19T09:13:35;94702.91;;;6.94;59.31
3968;BME280;9221;42.646;23.380;2023-11-19T09:16:00;94680.28;;;7.14;59.77
3968;BME280;9221;42.646;23.380;2023-11-19T09:18:29;94665.16;;;8.10;56.66
3968;BME280;9221;42.646;23.380;2023-11-19T09:20:54;94677.38;;;9.21;54.17
3968;BME280;9221;42.646;23.380;2023-11-19T09:23:20;94674.88;;;8.70;52.97
3968;BME280;9221;42.646;23.380;2023-11-19T09:25:45;94690.69;;;7.68;56.37
3968;BME280;9221;42.646;23.380;2023-11-19T09:28:11;94683.53;;;7.06;58.21
3968;BME280;9221;42.646;23.380;2023-11-19T09:30:36;94701.56;;;6.67;59.77
3968;BME280;9221;42.646;23.380;2023-11-19T09:33:02;94690.94;;;6.25;60.40
3968;BME280;9221;42.646;23.380;2023-11-19T09:35:27;94669.53;;;5.86;61.80
3968;BME280;9221;42.646;23.380;2023-11-19T09:37:53;94674.97;;;6.28;64.27
3968;BME280;9221;42.646;23.380;2023-11-19T09:40:18;94651.66;;;6.14;61.98
3968;BME280;9221;42.646;23.380;2023-11-19T09:42:44;94653.56;;;5.89;62.52
3968;BME280;9221;42.646;23.380;2023-11-19T09:45:14;94630.47;;;5.26;63.70
3968;BME280;9221;42.646;23.380;2023-11-19T09:47:46;94594.81;;;4.91;64.42
3968;BME280;9221;42.646;23.380;2023-11-19T09:50:18;94644.22;;;5.05;64.96
3968;BME280;9221;42.646;23.380;2023-11-19T09:52:44;94646.59;;;4.97;65.46
3968;BME280;9221;42.646;23.380;2023-11-19T09:55:10;94633.00;;;5.28;65.64
3968;BME280;9221;42.646;23.380;2023-11-19T09:57:38;94567.97;;;5.12;64.63
3968;BME280;9221;42.646;23.380;2023-11-19T10:00:05;94619.56;;;5.32;65.24
3968;BME280;9221;42.646;23.380;2023-11-19T10:02:33;94626.81;;;5.29;66.16
3968;BME280;9221;42.646;23.380;2023-11-19T10:04:59;94611.25;;;5.16;65.87
3968;BME280;9221;42.646;23.380;2023-11-19T10:07:28;94602.91;;;5.11;66.02
3968;BME280;9221;42.646;23.380;2023-11-19T10:09:53;94590.78;;;5.09;66.21
3968;BME280;9221;42.646;23.380;2023-11-19T10:12:19;94609.06;;;5.09;66.54
3968;BME280;9221;42.646;23.380;2023-11-19T10:14:45;94597.44;;;5.02;65.76
3968;BME280;9221;42.646;23.380;2023-11-19T10:17:11;94592.94;;;5.04;67.01
3968;BME280;9221;42.646;23.380;2023-11-19T10:19:36;94591.97;;;5.05;67.04
3968;BME280;9221;42.646;23.380;2023-11-19T10:22:05;94603.47;;;5.03;67.18
3968;BME280;9221;42.646;23.380;2023-11-19T10:24:34;94587.13;;;4.65;67.41
3968;BME280;9221;42.646;23.380;2023-11-19T10:27:00;94592.63;;;4.73;67.93
3968;BME280;9221;42.646;23.380;2023-11-19T10:29:29;94626.84;;;4.82;66.65
3968;BME280;9221;42.646;23.380;2023-11-19T10:31:58;94638.00;;;4.84;66.33
3968;BME280;9221;42.646;23.380;2023-11-19T10:34:27;94625.16;;;4.81;66.73
3968;BME280;9221;42.646;23.380;2023-11-19T10:36:53;94597.84;;;4.73;67.46
3968;BME280;9221;42.646;23.380;2023-11-19T10:39:19;94592.91;;;4.93;67.01
3968;BME280;9221;42.646;23.380;2023-11-19T10:41:46;94614.34;;;5.21;66.17
3968;BME280;9221;42.646;23.380;2023-11-19T10:44:11;94597.44;;;5.14;65.83
3968;BME280;9221;42.646;23.380;2023-11-19T10:46:41;94609.00;;;5.22;66.43
3968;BME280;9221;42.646;23.380;2023-11-19T10:49:07;94623.81;;;5.22;66.16
3968;BME280;9221;42.646;23.380;2023-11-19T10:51:33;94605.75;;;5.07;65.88
3968;BME280;9221;42.646;23.380;2023-11-19T10:54:02;94621.69;;;5.04;65.78
3968;BME280;9221;42.646;23.380;2023-11-19T10:56:32;94608.63;;;5.16;66.04
3968;BME280;9221;42.646;23.380;2023-11-19T10:59:01;94600.53;;;5.07;66.25
3968;BME280;9221;42.646;23.380;2023-11-19T11:01:34;94607.88;;;5.02;66.59
3968;BME280;9221;42.646;23.380;2023-11-19T11:04:14;94662.09;;;5.12;66.07
3968;BME280;9221;42.646;23.380;2023-11-19T11:06:40;94603.41;;;5.16;66.35
3968;BME280;9221;42.646;23.380;2023-11-19T11:09:07;94613.28;;;5.35;66.64
3968;BME280;9221;42.646;23.380;2023-11-19T11:11:38;94606.50;;;5.32;65.73
3968;BME280;9221;42.646;23.380;2023-11-19T11:14:04;94607.69;;;5.51;65.40
3968;BME280;9221;42.646;23.380;2023-11-19T11:16:31;94545.03;;;5.15;64.67
3968;BME280;9221;42.646;23.380;2023-11-19T11:18:57;94586.28;;;5.57;64.83
3968;BME280;9221;42.646;23.380;2023-11-19T11:21:24;94589.84;;;5.56;64.46
3968;BME280;9221;42.646;23.380;2023-11-19T11:29:34;94581.75;;;5.70;64.08
3968;BME280;9221;42.646;23.380;2023-11-19T11:35:08;94586.41;;;5.67;64.22
3968;BME280;9221;42.646;23.380;2023-11-19T11:37:44;94591.97;;;5.51;63.87
3968;BME280;9221;42.646;23.380;2023-11-19T11:40:17;94593.19;;;5.58;64.38
3968;BME280;9221;42.646;23.380;2023-11-19T11:42:46;94578.44;;;5.68;63.96
3968;BME280;9221;42.646;23.380;2023-11-19T11:45:13;94578.91;;;5.62;64.06
3968;BME280;9221;42.646;23.380;2023-11-19T11:50:15;94564.28;;;5.59;64.07
3968;BME280;9221;42.646;23.380;2023-11-19T11:57:55;94566.84;;;5.82;63.94
3968;BME280;9221;42.646;23.380;2023-11-19T12:03:02;94572.66;;;5.97;63.02
3968;BME280;9221;42.646;23.380;2023-11-19T12:05:27;94583.63;;;5.91;63.87
3968;BME280;9221;42.646;23.380;2023-11-19T12:07:56;94572.31;;;5.90;63.52
3968;BME280;9221;42.646;23.380;2023-11-19T12:10:26;94571.41;;;6.03;63.84
3968;BME280;9221;42.646;23.380;2023-11-19T12:12:58;94582.91;;;5.89;63.56
3968;BME280;9221;42.646;23.380;2023-11-19T12:15:23;94542.84;;;5.88;63.37
3968;BME280;9221;42.646;23.380;2023-11-19T12:17:51;94556.75;;;6.00;62.88
3968;BME280;9221;42.646;23.380;2023-11-19T12:20:18;94539.59;;;6.07;62.93
3968;BME280;9221;42.646;23.380;2023-11-19T12:22:45;94544.53;;;6.22;63.08
3968;BME280;9221;42.646;23.380;2023-11-19T12:25:12;94540.03;;;6.24;63.31
3968;BME280;9221;42.646;23.380;2023-11-19T12:27:46;94497.75;;;5.96;62.72
3968;BME280;9221;42.646;23.380;2023-11-19T12:30:12;94541.88;;;6.33;63.02
3968;BME280;9221;42.646;23.380;2023-11-19T12:32:38;94536.84;;;6.41;62.78
3968;BME280;9221;42.646;23.380;2023-11-19T12:35:05;94525.16;;;6.46;63.07
3968;BME280;9221;42.646;23.380;2023-11-19T12:37:30;94532.06;;;6.47;62.64
3968;BME280;9221;42.646;23.380;2023-11-19T12:39:57;94521.13;;;6.41;63.02
3968;BME280;9221;42.646;23.380;2023-11-19T12:42:46;94470.47;;;6.10;62.36
3968;BME280;9221;42.646;23.380;2023-11-19T12:45:12;94520.75;;;6.46;62.61
3968;BME280;9221;42.646;23.380;2023-11-19T12:47:44;94520.25;;;6.52;62.74
3968;BME280;9221;42.646;23.380;2023-11-19T12:50:13;94515.56;;;6.56;62.95
3968;BME280;9221;42.646;23.380;2023-11-19T12:52:38;94517.25;;;6.57;62.81
3968;BME280;9221;42.646;23.380;2023-11-19T12:55:05;94512.00;;;6.57;62.83
3968;BME280;9221;42.646;23.380;2023-11-19T12:57:49;94511.75;;;6.60;63.15
3968;BME280;9221;42.646;23.380;2023-11-19T13:00:19;94516.97;;;6.60;62.84
3968;BME280;9221;42.646;23.380;2023-11-19T13:02:49;94514.13;;;6.63;63.39
3968;BME280;9221;42.646;23.380;2023-11-19T13:05:28;94514.19;;;6.73;63.06
3968;BME280;9221;42.646;23.380;2023-11-19T13:10:26;94511.28;;;6.76;62.56
3968;BME280;9221;42.646;23.380;2023-11-19T13:13:05;94504.69;;;6.82;62.65
3968;BME280;9221;42.646;23.380;2023-11-19T13:15:32;94502.06;;;6.82;62.31
3968;BME280;9221;42.646;23.380;2023-11-19T13:17:59;94498.91;;;6.78;62.54
3968;BME280;9221;42.646;23.380;2023-11-19T13:20:25;94497.09;;;6.78;62.41
3968;BME280;9221;42.646;23.380;2023-11-19T13:23:01;94457.38;;;6.52;62.39
3968;BME280;9221;42.646;23.380;2023-11-19T13:25:28;94458.53;;;6.59;62.33
3968;BME280;9221;42.646;23.380;2023-11-19T13:27:54;94479.22;;;6.84;62.54
3968;BME280;9221;42.646;23.380;2023-11-19T13:30:20;94480.44;;;6.80;62.64
3968;BME280;9221;42.646;23.380;2023-11-19T13:32:48;94477.41;;;6.84;62.02
3968;BME280;9221;42.646;23.380;2023-11-19T13:35:14;94468.78;;;6.72;62.31
3968;BME280;9221;42.646;23.380;2023-11-19T13:37:40;94471.34;;;6.84;62.55
3968;BME280;9221;42.646;23.380;2023-11-19T13:40:09;94486.53;;;6.90;62.39
3968;BME280;9221;42.646;23.380;2023-11-19T13:42:44;94478.84;;;6.98;62.72
3968;BME280;9221;42.646;23.380;2023-11-19T13:45:13;94484.44;;;7.15;62.13